Time,TemperatureF,DewpointF,PressureIn,WindDirection,WindDirectionDegrees,WindSpeedMPH,WindSpeedGustMPH,Humidity,HourlyPrecipIn,Conditions,Clouds,dailyrainin,SoftwareType,DateUTC
2017-05-22 00:02:00,59.5,54.7,30.10,SSE,162,0.0,3.0,84,0.00,,,0.00,meteobridge,2017-05-22 04:02:00,
2017-05-22 00:07:00,59.5,54.7,30.10,SSE,148,0.9,2.0,84,0.00,,,0.00,meteobridge,2017-05-22 04:07:00,
2017-05-22 00:12:00,59.5,54.7,30.10,SSE,151,0.0,2.0,84,0.00,,,0.00,meteobridge,2017-05-22 04:12:00,
2017-05-22 00:17:00,59.5,54.7,30.10,WNW,292,2.9,3.0,84,0.00,,,0.00,meteobridge,2017-05-22 04:17:00,
2017-05-22 00:22:00,59.5,54.7,30.10,WNW,283,0.0,1.0,84,0.00,,,0.00,meteobridge,2017-05-22 04:22:00,
2017-05-22 00:28:00,59.7,55.2,30.10,SSE,149,0.9,5.0,85,0.00,,,0.00,meteobridge,2017-05-22 04:28:00,
2017-05-22 00:33:00,59.7,54.9,30.09,SSE,157,2.0,3.0,84,0.00,,,0.00,meteobridge,2017-05-22 04:33:00,
2017-05-22 00:38:00,59.7,55.2,30.10,SSW,210,0.0,0.0,85,0.00,,,0.00,meteobridge,2017-05-22 04:38:00,
2017-05-22 00:43:00,59.7,55.2,30.10,NNE,31,0.0,2.0,85,0.00,,,0.00,meteobridge,2017-05-22 04:43:00,
2017-05-22 00:48:00,59.5,55.0,30.09,ESE,119,0.0,2.0,85,0.00,,,0.00,meteobridge,2017-05-22 04:48:00,
2017-05-22 00:53:00,59.5,55.4,30.09,WNW,288,0.9,2.0,86,0.00,,,0.00,meteobridge,2017-05-22 04:53:00,
2017-05-22 00:58:00,59.7,55.6,30.09,SE,144,2.0,4.0,86,0.00,,,0.00,meteobridge,2017-05-22 04:58:00,
2017-05-22 01:03:00,59.7,55.6,30.09,SSE,167,0.0,2.0,86,0.00,,,0.00,meteobridge,2017-05-22 05:03:00,
2017-05-22 01:08:00,60.1,55.6,30.09,ESE,122,0.0,2.0,85,0.00,,,0.00,meteobridge,2017-05-22 05:08:00,
2017-05-22 01:13:00,60.1,55.6,30.09,SE,144,0.0,1.0,85,0.00,,,0.00,meteobridge,2017-05-22 05:13:00,
2017-05-22 01:18:00,60.1,55.6,30.09,WSW,243,0.0,1.0,85,0.00,,,0.00,meteobridge,2017-05-22 05:18:00,
2017-05-22 01:25:00,60.3,56.1,30.08,SE,130,0.9,3.0,86,0.00,,,0.00,meteobridge,2017-05-22 05:25:00,
2017-05-22 01:30:00,60.3,55.8,30.07,SSE,148,0.9,3.0,85,0.00,,,0.00,meteobridge,2017-05-22 05:30:00,
2017-05-22 01:35:00,60.4,55.9,30.07,SSE,149,0.0,3.0,85,0.00,,,0.00,meteobridge,2017-05-22 05:35:00,
2017-05-22 01:40:00,60.4,55.9,30.07,SSE,164,0.0,3.0,85,0.00,,,0.00,meteobridge,2017-05-22 05:40:00,
2017-05-22 01:41:00,60.4,55.9,30.07,SSE,163,0.9,3.0,85,0.00,,,0.00,meteobridge,2017-05-22 05:41:00,
2017-05-22 01:46:00,60.4,55.9,30.07,WSW,250,0.0,2.0,85,0.00,,,0.00,meteobridge,2017-05-22 05:46:00,
2017-05-22 01:52:00,60.3,55.8,30.07,ESE,121,0.9,3.0,85,0.00,,,0.00,meteobridge,2017-05-22 05:52:00,
2017-05-22 01:57:00,60.1,55.6,30.07,South,176,0.0,6.0,85,0.00,,,0.00,meteobridge,2017-05-22 05:57:00,
2017-05-22 02:02:00,60.1,55.6,30.07,SE,132,0.0,2.0,85,0.00,,,0.00,meteobridge,2017-05-22 06:02:00,
2017-05-22 02:07:00,60.1,55.9,30.07,SSW,192,0.0,2.0,86,0.00,,,0.00,meteobridge,2017-05-22 06:07:00,
2017-05-22 02:12:00,60.1,55.9,30.06,SSE,157,0.0,0.0,86,0.00,,,0.00,meteobridge,2017-05-22 06:12:00,
2017-05-22 02:18:00,60.1,55.9,30.06,ESE,102,0.9,2.0,86,0.00,,,0.00,meteobridge,2017-05-22 06:18:00,
2017-05-22 02:23:00,60.1,55.9,30.06,SE,134,0.0,2.0,86,0.00,,,0.00,meteobridge,2017-05-22 06:23:00,
2017-05-22 02:28:00,60.1,55.9,30.06,SSE,147,0.0,2.0,86,0.00,,,0.00,meteobridge,2017-05-22 06:28:00,
2017-05-22 02:33:00,60.3,56.1,30.06,South,171,0.9,3.0,86,0.00,,,0.00,meteobridge,2017-05-22 06:33:00,
2017-05-22 02:38:00,60.3,56.1,30.06,ESE,117,0.9,3.0,86,0.00,,,0.00,meteobridge,2017-05-22 06:38:00,
2017-05-22 02:43:00,60.3,56.1,30.06,West,265,4.0,4.0,86,0.00,,,0.00,meteobridge,2017-05-22 06:43:00,
2017-05-22 02:49:00,60.3,56.1,30.06,SE,132,0.0,3.0,86,0.00,,,0.00,meteobridge,2017-05-22 06:49:00,
2017-05-22 02:54:00,60.1,55.9,30.06,ESE,121,0.9,2.0,86,0.00,,,0.00,meteobridge,2017-05-22 06:54:00,
2017-05-22 02:59:00,60.1,55.9,30.05,SSE,165,0.9,3.0,86,0.00,,,0.00,meteobridge,2017-05-22 06:59:00,
2017-05-22 03:04:00,59.9,55.8,30.05,SW,216,2.0,2.0,86,0.00,,,0.00,meteobridge,2017-05-22 07:04:00,
2017-05-22 03:09:00,59.7,55.8,30.05,East,101,2.0,4.0,87,0.00,,,0.00,meteobridge,2017-05-22 07:09:00,
2017-05-22 03:14:00,59.7,55.8,30.05,SSE,153,0.0,3.0,87,0.00,,,0.00,meteobridge,2017-05-22 07:14:00,
2017-05-22 03:19:00,59.7,55.8,30.05,SW,230,0.9,3.0,87,0.00,,,0.00,meteobridge,2017-05-22 07:19:00,
2017-05-22 03:24:00,59.7,55.8,30.05,SE,128,0.0,1.0,87,0.00,,,0.00,meteobridge,2017-05-22 07:24:00,
2017-05-22 03:29:00,59.7,55.8,30.05,South,180,2.0,4.0,87,0.00,,,0.00,meteobridge,2017-05-22 07:29:00,
2017-05-22 03:34:00,59.7,55.8,30.05,West,279,0.0,2.0,87,0.00,,,0.00,meteobridge,2017-05-22 07:34:00,
2017-05-22 03:39:00,59.5,55.6,30.05,SW,223,2.0,2.0,87,0.00,,,0.00,meteobridge,2017-05-22 07:39:00,
2017-05-22 03:44:00,59.5,55.6,30.04,East,80,0.9,2.0,87,0.00,,,0.00,meteobridge,2017-05-22 07:44:00,
2017-05-22 03:49:00,59.5,55.6,30.03,ESE,102,2.0,3.0,87,0.00,,,0.00,meteobridge,2017-05-22 07:49:00,
2017-05-22 03:54:00,59.4,55.4,30.03,NNW,338,0.0,1.0,87,0.00,,,0.00,meteobridge,2017-05-22 07:54:00,
2017-05-22 03:55:00,59.4,55.4,30.03,NNW,338,0.9,1.0,87,0.00,,,0.00,meteobridge,2017-05-22 07:55:00,
2017-05-22 04:00:00,59.0,55.2,30.03,NNW,338,0.0,0.0,87,0.00,,,0.00,meteobridge,2017-05-22 08:00:00,
2017-05-22 04:05:00,58.6,55.0,30.03,NNW,337,0.9,2.0,88,0.00,,,0.00,meteobridge,2017-05-22 08:05:00,
2017-05-22 04:10:00,58.5,54.9,30.03,NNW,331,0.0,0.0,88,0.00,,,0.00,meteobridge,2017-05-22 08:10:00,
2017-05-22 04:15:00,58.3,54.7,30.02,NNW,332,2.0,4.0,88,0.00,,,0.00,meteobridge,2017-05-22 08:15:00,
2017-05-22 04:20:00,58.3,55.0,30.03,NNW,332,0.0,3.0,89,0.00,,,0.00,meteobridge,2017-05-22 08:20:00,
2017-05-22 04:25:00,57.9,54.7,30.03,NNW,332,0.0,1.0,89,0.00,,,0.00,meteobridge,2017-05-22 08:25:00,
2017-05-22 04:30:00,57.9,54.7,30.03,NNW,332,0.0,0.0,89,0.00,,,0.00,meteobridge,2017-05-22 08:30:00,
2017-05-22 04:35:00,57.7,54.5,30.03,NNW,332,0.0,0.0,89,0.00,,,0.00,meteobridge,2017-05-22 08:35:00,
2017-05-22 04:40:00,57.7,54.9,30.03,NNW,338,0.0,1.0,90,0.00,,,0.00,meteobridge,2017-05-22 08:40:00,
2017-05-22 04:45:00,57.9,55.0,30.03,NNW,338,0.0,0.0,90,0.00,,,0.00,meteobridge,2017-05-22 08:45:00,
2017-05-22 04:50:00,57.7,54.9,30.03,NNW,338,0.0,0.0,90,0.00,,,0.00,meteobridge,2017-05-22 08:50:00,
2017-05-22 04:55:00,57.7,54.9,30.03,NNW,338,0.0,0.0,90,0.00,,,0.00,meteobridge,2017-05-22 08:55:00,
2017-05-22 05:00:00,57.7,54.9,30.03,NNW,338,0.0,0.0,90,0.00,,,0.00,meteobridge,2017-05-22 09:00:00,
2017-05-22 05:05:00,57.7,54.9,30.03,NNW,338,0.0,0.0,90,0.00,,,0.00,meteobridge,2017-05-22 09:05:00,
2017-05-22 05:11:00,57.7,54.9,30.02,NNW,338,0.0,0.0,90,0.00,,,0.00,meteobridge,2017-05-22 09:11:00,
2017-05-22 05:16:00,57.7,54.9,30.03,NNW,338,0.0,0.0,90,0.00,,,0.00,meteobridge,2017-05-22 09:16:00,
2017-05-22 05:21:00,57.7,55.2,30.02,ESE,106,0.0,0.0,91,0.00,,,0.00,meteobridge,2017-05-22 09:21:00,
2017-05-22 05:26:00,57.7,54.9,30.02,ESE,106,0.0,0.0,90,0.00,,,0.00,meteobridge,2017-05-22 09:26:00,
2017-05-22 05:31:00,57.7,54.9,30.02,ESE,110,0.0,0.0,90,0.00,,,0.00,meteobridge,2017-05-22 09:31:00,
2017-05-22 05:36:00,57.6,54.7,30.02,ESE,109,0.0,0.0,90,0.00,,,0.00,meteobridge,2017-05-22 09:36:00,
2017-05-22 05:41:00,57.6,54.7,30.02,ESE,109,0.0,1.0,90,0.00,,,0.00,meteobridge,2017-05-22 09:41:00,
2017-05-22 05:46:00,57.6,54.7,30.02,ENE,64,0.0,0.0,90,0.00,,,0.00,meteobridge,2017-05-22 09:46:00,
2017-05-22 05:51:00,57.4,54.5,30.02,NNW,339,0.0,1.0,90,0.00,,,0.00,meteobridge,2017-05-22 09:51:00,
2017-05-22 05:56:00,57.0,54.1,30.02,NNW,330,0.0,1.0,90,0.00,,,0.00,meteobridge,2017-05-22 09:56:00,
2017-05-22 06:01:00,56.8,54.0,30.02,NW,325,0.0,1.0,90,0.00,,,0.00,meteobridge,2017-05-22 10:01:00,
2017-05-22 06:06:00,56.7,54.1,30.02,NW,325,0.0,0.0,91,0.00,,,0.00,meteobridge,2017-05-22 10:06:00,
2017-05-22 06:11:00,56.5,54.0,30.02,NW,325,0.0,0.0,91,0.00,,,0.00,meteobridge,2017-05-22 10:11:00,
2017-05-22 06:16:00,56.5,54.0,30.02,NW,325,0.0,0.0,91,0.00,,,0.00,meteobridge,2017-05-22 10:16:00,
2017-05-22 06:21:00,56.5,54.0,30.02,NW,325,0.0,0.0,91,0.00,,,0.00,meteobridge,2017-05-22 10:21:00,
2017-05-22 06:26:00,56.5,54.1,30.02,NW,325,0.0,0.0,92,0.00,,,0.00,meteobridge,2017-05-22 10:26:00,
2017-05-22 06:31:00,56.7,54.3,30.02,NW,325,2.0,2.0,92,0.00,,,0.00,meteobridge,2017-05-22 10:31:00,
2017-05-22 06:36:00,56.7,54.3,30.02,NW,325,0.0,0.0,92,0.00,,,0.00,meteobridge,2017-05-22 10:36:00,
2017-05-22 06:41:00,56.7,54.3,30.02,NW,325,0.0,0.0,92,0.00,,,0.00,meteobridge,2017-05-22 10:41:00,
2017-05-22 06:46:00,56.7,54.3,30.02,NW,325,0.0,0.0,92,0.00,,,0.00,meteobridge,2017-05-22 10:46:00,
2017-05-22 06:51:00,56.7,54.3,30.02,NW,325,0.0,0.0,92,0.00,,,0.00,meteobridge,2017-05-22 10:51:00,
2017-05-22 06:56:00,56.8,54.5,30.02,NW,325,0.0,0.0,92,0.00,,,0.00,meteobridge,2017-05-22 10:56:00,
2017-05-22 07:01:00,56.8,54.5,30.01,NW,325,0.0,0.0,92,0.00,,,0.00,meteobridge,2017-05-22 11:01:00,
2017-05-22 07:07:00,57.0,54.7,30.01,NW,325,0.0,0.0,92,0.00,,,0.00,meteobridge,2017-05-22 11:07:00,
2017-05-22 07:12:00,57.2,54.9,30.02,NW,325,0.0,0.0,92,0.00,,,0.00,meteobridge,2017-05-22 11:12:00,
2017-05-22 07:17:00,57.4,55.0,30.01,NW,325,0.0,1.0,92,0.00,,,0.00,meteobridge,2017-05-22 11:17:00,
2017-05-22 07:22:00,57.4,55.0,30.02,NW,325,0.9,2.0,92,0.00,,,0.00,meteobridge,2017-05-22 11:22:00,
2017-05-22 07:27:00,57.4,55.0,30.01,NW,325,0.0,1.0,92,0.00,,,0.00,meteobridge,2017-05-22 11:27:00,
2017-05-22 07:32:00,57.4,55.0,30.02,NW,325,0.9,2.0,92,0.00,,,0.00,meteobridge,2017-05-22 11:32:00,
2017-05-22 07:37:00,57.4,55.0,30.03,NNW,341,0.0,3.0,92,0.00,,,0.00,meteobridge,2017-05-22 11:37:00,
2017-05-22 07:42:00,57.2,54.9,30.03,NNW,339,0.9,3.0,92,0.00,,,0.00,meteobridge,2017-05-22 11:42:00,
2017-05-22 07:47:00,57.0,54.7,30.02,NNW,339,0.0,0.0,92,0.00,,,0.00,meteobridge,2017-05-22 11:47:00,
2017-05-22 07:53:00,57.2,54.9,30.03,South,170,0.0,2.0,92,0.00,,,0.00,meteobridge,2017-05-22 11:53:00,
2017-05-22 07:58:00,57.4,55.0,30.02,South,170,0.0,0.0,92,0.00,,,0.00,meteobridge,2017-05-22 11:58:00,
2017-05-22 08:03:00,57.4,55.0,30.02,South,170,0.0,0.0,92,0.00,,,0.00,meteobridge,2017-05-22 12:03:00,
2017-05-22 08:08:00,57.6,55.2,30.02,South,170,0.0,1.0,92,0.00,,,0.00,meteobridge,2017-05-22 12:08:00,
2017-05-22 08:14:00,57.7,55.4,30.02,South,170,0.0,1.0,92,0.00,,,0.00,meteobridge,2017-05-22 12:14:00,
2017-05-22 08:19:00,58.1,55.8,30.02,South,170,0.0,0.0,92,0.00,,,0.00,meteobridge,2017-05-22 12:19:00,
2017-05-22 08:24:00,58.5,56.1,30.02,South,170,0.0,0.0,92,0.00,,,0.00,meteobridge,2017-05-22 12:24:00,
2017-05-22 08:29:00,58.6,55.9,30.02,South,170,0.0,1.0,91,0.00,,,0.00,meteobridge,2017-05-22 12:29:00,
2017-05-22 08:31:00,58.6,55.9,30.02,South,170,0.0,0.0,91,0.00,,,0.00,meteobridge,2017-05-22 12:31:00,
2017-05-22 08:36:00,58.6,55.9,30.02,South,170,0.0,0.0,91,0.00,,,0.00,meteobridge,2017-05-22 12:36:00,
2017-05-22 08:41:00,58.6,55.9,30.02,South,170,0.0,1.0,91,0.00,,,0.00,meteobridge,2017-05-22 12:41:00,
2017-05-22 08:46:00,58.6,55.9,30.02,South,170,0.0,0.0,91,0.00,,,0.00,meteobridge,2017-05-22 12:46:00,
2017-05-22 08:52:00,58.8,56.1,30.02,South,170,0.0,0.0,91,0.00,,,0.00,meteobridge,2017-05-22 12:52:00,
2017-05-22 08:57:00,59.2,56.5,30.02,South,170,0.0,1.0,91,0.00,,,0.00,meteobridge,2017-05-22 12:57:00,
2017-05-22 09:02:00,59.5,56.8,30.01,South,170,0.0,0.0,91,0.00,,,0.00,meteobridge,2017-05-22 13:02:00,
2017-05-22 09:07:00,59.7,57.0,30.01,South,170,0.0,0.0,91,0.00,,,0.00,meteobridge,2017-05-22 13:07:00,
2017-05-22 09:12:00,60.3,57.4,30.01,South,170,0.0,2.0,90,0.00,,,0.00,meteobridge,2017-05-22 13:12:00,
2017-05-22 09:17:00,60.6,57.7,30.01,NNW,336,0.0,2.0,90,0.00,,,0.00,meteobridge,2017-05-22 13:17:00,
2017-05-22 09:22:00,61.2,57.9,30.01,NNW,336,2.0,3.0,89,0.00,,,0.00,meteobridge,2017-05-22 13:22:00,
2017-05-22 09:27:00,61.3,57.7,30.01,NNW,340,2.0,3.0,88,0.00,,,0.00,meteobridge,2017-05-22 13:27:00,
2017-05-22 09:32:00,61.7,58.1,30.01,NNW,336,0.0,3.0,88,0.00,,,0.00,meteobridge,2017-05-22 13:32:00,
2017-05-22 09:37:00,62.1,58.5,30.01,NNW,336,0.0,1.0,88,0.00,,,0.00,meteobridge,2017-05-22 13:37:00,
2017-05-22 09:42:00,62.2,58.6,30.01,NNW,336,0.9,1.0,88,0.00,,,0.00,meteobridge,2017-05-22 13:42:00,
2017-05-22 09:48:00,62.6,58.6,30.00,NNW,334,0.0,1.0,87,0.00,,,0.00,meteobridge,2017-05-22 13:48:00,
2017-05-22 09:53:00,62.8,58.8,30.00,NNW,334,0.0,2.0,87,0.00,,,0.00,meteobridge,2017-05-22 13:53:00,
2017-05-22 09:58:00,63.1,58.8,30.00,NNW,334,0.9,2.0,86,0.00,,,0.00,meteobridge,2017-05-22 13:58:00,
2017-05-22 10:03:00,63.3,59.0,30.00,NNW,334,2.0,2.0,86,0.00,,,0.00,meteobridge,2017-05-22 14:03:00,
2017-05-22 10:08:00,63.9,59.5,30.00,NNW,334,0.0,2.0,86,0.00,,,0.00,meteobridge,2017-05-22 14:08:00,
2017-05-22 10:13:00,64.0,59.4,30.00,NNW,334,0.0,1.0,85,0.00,,,0.00,meteobridge,2017-05-22 14:13:00,
2017-05-22 10:18:00,64.2,59.5,29.99,NNW,334,0.0,1.0,85,0.00,,,0.00,meteobridge,2017-05-22 14:18:00,
2017-05-22 10:23:00,64.2,59.5,30.00,NNW,334,0.9,2.0,85,0.00,,,0.00,meteobridge,2017-05-22 14:23:00,
2017-05-22 10:28:00,64.6,59.9,29.99,NNW,334,0.0,0.0,85,0.00,,,0.00,meteobridge,2017-05-22 14:28:00,
2017-05-22 10:33:00,64.8,60.1,29.99,NNW,334,0.0,2.0,85,0.00,,,0.00,meteobridge,2017-05-22 14:33:00,
2017-05-22 10:38:00,65.7,60.6,29.99,NNW,334,0.0,2.0,84,0.00,,,0.00,meteobridge,2017-05-22 14:38:00,
2017-05-22 10:44:00,66.2,60.8,29.99,NNW,334,0.0,1.0,83,0.00,,,0.00,meteobridge,2017-05-22 14:44:00,
2017-05-22 10:49:00,66.6,61.0,29.99,NNW,337,0.0,2.0,82,0.00,,,0.00,meteobridge,2017-05-22 14:49:00,
2017-05-22 10:54:00,66.6,61.0,29.99,NNW,337,0.9,2.0,82,0.00,,,0.00,meteobridge,2017-05-22 14:54:00,
2017-05-22 10:59:00,66.9,61.5,29.99,NNW,327,0.0,1.0,83,0.00,,,0.00,meteobridge,2017-05-22 14:59:00,
2017-05-22 11:04:00,67.1,61.3,29.99,NNW,327,0.0,1.0,82,0.00,,,0.00,meteobridge,2017-05-22 15:04:00,
2017-05-22 11:10:00,66.7,61.0,29.99,NNW,327,0.0,0.0,82,0.00,,,0.00,meteobridge,2017-05-22 15:10:00,
2017-05-22 11:15:00,66.7,61.3,29.99,NNW,327,0.0,1.0,83,0.00,,,0.00,meteobridge,2017-05-22 15:15:00,
2017-05-22 11:20:00,66.7,61.3,29.99,NNW,328,0.0,0.0,83,0.00,,,0.00,meteobridge,2017-05-22 15:20:00,
2017-05-22 11:25:00,67.3,63.0,29.98,NW,306,0.0,1.0,86,0.00,,,0.00,meteobridge,2017-05-22 15:25:00,
2017-05-22 11:30:00,68.5,63.9,29.98,SE,136,0.0,2.0,85,0.00,,,0.00,meteobridge,2017-05-22 15:30:00,
2017-05-22 11:36:00,69.3,62.4,29.98,SSE,167,0.0,1.0,79,0.00,,,0.00,meteobridge,2017-05-22 15:36:00,
2017-05-22 11:41:00,69.8,63.3,29.98,SSE,167,0.0,1.0,80,0.00,,,0.00,meteobridge,2017-05-22 15:41:00,
2017-05-22 11:46:00,70.3,63.5,29.98,SSE,167,0.0,0.0,79,0.00,,,0.00,meteobridge,2017-05-22 15:46:00,
2017-05-22 11:51:00,70.5,63.7,29.98,South,172,0.0,2.0,79,0.00,,,0.00,meteobridge,2017-05-22 15:51:00,
2017-05-22 11:52:00,70.7,64.2,29.98,NW,311,0.0,2.0,80,0.00,,,0.00,meteobridge,2017-05-22 15:52:00,
2017-05-22 11:57:00,71.1,64.6,29.97,SSE,165,0.0,1.0,80,0.00,,,0.00,meteobridge,2017-05-22 15:57:00,
2017-05-22 12:02:00,71.4,64.9,29.98,West,275,0.9,2.0,80,0.00,,,0.00,meteobridge,2017-05-22 16:02:00,
2017-05-22 12:07:00,71.4,64.6,29.98,NNW,334,0.0,1.0,79,0.00,,,0.00,meteobridge,2017-05-22 16:07:00,
2017-05-22 12:14:00,71.4,64.6,29.98,NNW,333,0.0,2.0,79,0.00,,,0.00,meteobridge,2017-05-22 16:14:00,
2017-05-22 12:19:00,71.2,64.4,29.98,NNW,333,0.0,0.0,79,0.00,,,0.00,meteobridge,2017-05-22 16:19:00,
2017-05-22 12:25:00,71.4,65.3,29.98,South,182,0.0,1.0,81,0.00,,,0.00,meteobridge,2017-05-22 16:25:00,
2017-05-22 12:30:00,72.0,64.8,29.98,ENE,78,0.0,0.0,78,0.00,,,0.00,meteobridge,2017-05-22 16:30:00,
2017-05-22 12:33:00,72.5,65.3,29.98,North,5,0.0,1.0,78,0.00,,,0.00,meteobridge,2017-05-22 16:33:00,
2017-05-22 12:38:00,73.2,65.7,29.97,North,5,0.0,1.0,77,0.00,,,0.00,meteobridge,2017-05-22 16:38:00,
2017-05-22 12:43:00,73.6,65.1,29.96,SE,140,0.0,1.0,75,0.00,,,0.00,meteobridge,2017-05-22 16:43:00,
2017-05-22 12:48:00,73.8,64.9,29.96,WNW,302,0.0,2.0,74,0.00,,,0.00,meteobridge,2017-05-22 16:48:00,
2017-05-22 12:53:00,73.6,65.1,29.96,WNW,290,0.9,2.0,75,0.00,,,0.00,meteobridge,2017-05-22 16:53:00,
2017-05-22 12:58:00,73.8,64.2,29.96,NW,313,0.9,6.0,72,0.00,,,0.00,meteobridge,2017-05-22 16:58:00,
2017-05-22 13:03:00,73.8,64.2,29.96,NW,313,0.9,4.0,72,0.00,,,0.00,meteobridge,2017-05-22 17:03:00,
2017-05-22 13:08:00,73.8,64.9,29.95,WNW,297,0.0,3.0,74,0.00,,,0.00,meteobridge,2017-05-22 17:08:00,
2017-05-22 13:13:00,74.5,64.9,29.95,West,265,0.0,4.0,72,0.00,,,0.00,meteobridge,2017-05-22 17:13:00,
2017-05-22 13:18:00,75.0,65.3,29.95,WNW,296,2.9,5.0,72,0.00,,,0.00,meteobridge,2017-05-22 17:18:00,
2017-05-22 13:23:00,75.0,64.9,29.95,NW,315,0.9,2.0,71,0.00,,,0.00,meteobridge,2017-05-22 17:23:00,
2017-05-22 13:28:00,75.4,66.2,29.94,WNW,300,2.0,2.0,73,0.00,,,0.00,meteobridge,2017-05-22 17:28:00,
2017-05-22 13:33:00,76.3,66.2,29.94,WNW,286,4.9,5.0,71,0.00,,,0.00,meteobridge,2017-05-22 17:33:00,
2017-05-22 13:38:00,76.3,64.9,29.94,WNW,295,0.9,3.0,68,0.00,,,0.00,meteobridge,2017-05-22 17:38:00,
2017-05-22 13:44:00,76.6,63.5,29.93,WNW,301,2.0,3.0,64,0.00,,,0.00,meteobridge,2017-05-22 17:44:00,
2017-05-22 13:49:00,76.8,63.7,29.93,WNW,285,4.0,6.0,64,0.00,,,0.00,meteobridge,2017-05-22 17:49:00,
2017-05-22 13:54:00,77.2,64.0,29.93,WNW,290,4.0,5.0,64,0.00,,,0.00,meteobridge,2017-05-22 17:54:00,
2017-05-22 13:59:00,77.5,64.4,29.93,NNW,327,2.0,4.0,64,0.00,,,0.00,meteobridge,2017-05-22 17:59:00,
2017-05-22 14:04:00,78.1,65.3,29.93,NNW,334,0.0,5.0,65,0.00,,,0.00,meteobridge,2017-05-22 18:04:00,
2017-05-22 14:05:00,78.1,65.3,29.93,NW,324,2.0,5.0,65,0.00,,,0.00,meteobridge,2017-05-22 18:05:00,
2017-05-22 14:10:00,78.3,63.7,29.93,NNW,336,4.9,6.0,61,0.00,,,0.00,meteobridge,2017-05-22 18:10:00,
2017-05-22 14:15:00,77.7,61.3,29.93,WNW,297,2.9,6.0,57,0.00,,,0.00,meteobridge,2017-05-22 18:15:00,
2017-05-22 14:20:00,77.5,63.0,29.93,WNW,297,0.9,3.0,61,0.00,,,0.00,meteobridge,2017-05-22 18:20:00,
2017-05-22 14:25:00,77.7,62.2,29.92,WNW,298,2.9,3.0,59,0.00,,,0.00,meteobridge,2017-05-22 18:25:00,
2017-05-22 14:30:00,77.4,59.9,29.92,NNW,329,2.0,5.0,55,0.00,,,0.00,meteobridge,2017-05-22 18:30:00,
2017-05-22 14:32:00,77.4,59.4,29.92,NW,309,4.0,8.0,54,0.00,,,0.00,meteobridge,2017-05-22 18:32:00,
2017-05-22 14:34:00,77.2,58.3,29.92,WNW,302,2.9,5.0,52,0.00,,,0.00,meteobridge,2017-05-22 18:34:00,
2017-05-22 14:39:00,76.8,58.5,29.92,WNW,294,0.9,7.0,53,0.00,,,0.00,meteobridge,2017-05-22 18:39:00,
2017-05-22 14:44:00,76.8,59.9,29.92,WNW,291,4.9,5.0,56,0.00,,,0.00,meteobridge,2017-05-22 18:44:00,
2017-05-22 14:49:00,76.6,58.8,29.92,WNW,294,2.0,4.0,54,0.00,,,0.00,meteobridge,2017-05-22 18:49:00,
2017-05-22 14:54:00,76.1,58.3,29.92,NW,306,2.9,5.0,54,0.00,,,0.00,meteobridge,2017-05-22 18:54:00,
2017-05-22 14:59:00,75.7,59.0,29.92,WNW,288,2.9,5.0,56,0.00,,,0.00,meteobridge,2017-05-22 18:59:00,
2017-05-22 15:04:00,75.4,58.1,29.92,WNW,302,2.9,5.0,55,0.00,,,0.00,meteobridge,2017-05-22 19:04:00,
2017-05-22 15:09:00,75.6,59.7,29.92,NW,321,0.9,4.0,58,0.00,,,0.00,meteobridge,2017-05-22 19:09:00,
2017-05-22 15:14:00,75.6,59.7,29.92,WNW,291,0.9,4.0,58,0.00,,,0.00,meteobridge,2017-05-22 19:14:00,
2017-05-22 15:19:00,75.6,58.8,29.92,WNW,301,0.0,2.0,56,0.00,,,0.00,meteobridge,2017-05-22 19:19:00,
2017-05-22 15:24:00,75.0,59.2,29.92,WNW,296,2.9,4.0,58,0.00,,,0.00,meteobridge,2017-05-22 19:24:00,
2017-05-22 15:29:00,74.7,58.5,29.92,NW,304,2.0,4.0,57,0.00,,,0.00,meteobridge,2017-05-22 19:29:00,
2017-05-22 15:35:00,74.1,58.5,29.92,WNW,297,2.9,4.0,58,0.00,,,0.00,meteobridge,2017-05-22 19:35:00,
2017-05-22 15:40:00,73.9,57.2,29.92,NW,308,0.9,2.0,56,0.00,,,0.00,meteobridge,2017-05-22 19:40:00,
2017-05-22 15:45:00,73.9,56.8,29.92,WNW,294,0.0,2.0,55,0.00,,,0.00,meteobridge,2017-05-22 19:45:00,
2017-05-22 15:50:00,74.1,56.8,29.92,NW,307,0.9,2.0,55,0.00,,,0.00,meteobridge,2017-05-22 19:50:00,
2017-05-22 15:52:00,74.1,57.9,29.92,NW,306,0.9,3.0,57,0.00,,,0.00,meteobridge,2017-05-22 19:52:00,
2017-05-22 15:57:00,74.5,58.8,29.91,NW,304,0.0,2.0,58,0.00,,,0.00,meteobridge,2017-05-22 19:57:00,
2017-05-22 16:02:00,75.0,59.2,29.91,WNW,297,2.0,3.0,58,0.00,,,0.00,meteobridge,2017-05-22 20:02:00,
2017-05-22 16:07:00,75.7,59.0,29.91,NW,326,0.0,4.0,56,0.00,,,0.00,meteobridge,2017-05-22 20:07:00,
2017-05-22 16:12:00,75.6,57.2,29.91,WNW,291,2.0,5.0,53,0.00,,,0.00,meteobridge,2017-05-22 20:12:00,
2017-05-22 16:17:00,74.8,58.1,29.91,NW,306,0.9,4.0,56,0.00,,,0.00,meteobridge,2017-05-22 20:17:00,
2017-05-22 16:22:00,74.8,57.6,29.91,NW,323,0.9,3.0,55,0.00,,,0.00,meteobridge,2017-05-22 20:22:00,
2017-05-22 16:28:00,74.7,56.5,29.91,WNW,292,2.0,3.0,53,0.00,,,0.00,meteobridge,2017-05-22 20:28:00,
2017-05-22 16:33:00,74.5,56.7,29.91,NW,314,0.0,3.0,54,0.00,,,0.00,meteobridge,2017-05-22 20:33:00,
2017-05-22 16:38:00,74.7,56.8,29.92,WNW,301,2.0,3.0,54,0.00,,,0.00,meteobridge,2017-05-22 20:38:00,
2017-05-22 16:43:00,74.7,56.5,29.92,WNW,295,2.0,4.0,53,0.00,,,0.00,meteobridge,2017-05-22 20:43:00,
2017-05-22 16:48:00,74.7,56.8,29.92,WNW,293,4.0,4.0,54,0.00,,,0.00,meteobridge,2017-05-22 20:48:00,
2017-05-22 16:53:00,74.1,55.9,29.91,NNW,334,0.0,4.0,53,0.00,,,0.00,meteobridge,2017-05-22 20:53:00,
2017-05-22 16:58:00,73.6,55.9,29.92,WNW,294,0.0,3.0,54,0.00,,,0.00,meteobridge,2017-05-22 20:58:00,
2017-05-22 17:03:00,73.0,55.9,29.92,WNW,290,2.0,4.0,55,0.00,,,0.00,meteobridge,2017-05-22 21:03:00,
2017-05-22 17:08:00,72.9,56.3,29.91,WNW,302,0.0,1.0,56,0.00,,,0.00,meteobridge,2017-05-22 21:08:00,
2017-05-22 17:13:00,72.9,55.8,29.91,WNW,302,0.9,2.0,55,0.00,,,0.00,meteobridge,2017-05-22 21:13:00,
2017-05-22 17:18:00,72.5,55.9,29.91,WNW,301,2.0,3.0,56,0.00,,,0.00,meteobridge,2017-05-22 21:18:00,
2017-05-22 17:23:00,72.1,56.1,29.91,WNW,300,2.9,5.0,57,0.00,,,0.00,meteobridge,2017-05-22 21:23:00,
2017-05-22 17:28:00,72.0,54.3,29.91,WNW,298,2.0,6.0,54,0.00,,,0.00,meteobridge,2017-05-22 21:28:00,
2017-05-22 17:33:00,72.0,54.3,29.92,WNW,294,0.9,6.0,54,0.00,,,0.00,meteobridge,2017-05-22 21:33:00,
2017-05-22 17:38:00,72.0,54.9,29.91,WNW,288,2.9,3.0,55,0.00,,,0.00,meteobridge,2017-05-22 21:38:00,
2017-05-22 17:43:00,71.8,54.7,29.91,WNW,296,2.0,3.0,55,0.00,,,0.00,meteobridge,2017-05-22 21:43:00,
2017-05-22 17:48:00,72.0,54.9,29.91,NNW,344,0.9,4.0,55,0.00,,,0.00,meteobridge,2017-05-22 21:48:00,
2017-05-22 17:53:00,72.0,55.4,29.92,WNW,293,0.0,4.0,56,0.00,,,0.00,meteobridge,2017-05-22 21:53:00,
2017-05-22 17:58:00,72.0,54.9,29.92,WNW,296,0.0,3.0,55,0.00,,,0.00,meteobridge,2017-05-22 21:58:00,
2017-05-22 18:03:00,72.1,55.0,29.92,WNW,296,0.9,5.0,55,0.00,,,0.00,meteobridge,2017-05-22 22:03:00,
2017-05-22 18:09:00,72.1,55.6,29.92,NNW,338,4.0,5.0,56,0.00,,,0.00,meteobridge,2017-05-22 22:09:00,
2017-05-22 18:14:00,72.0,54.9,29.92,WNW,298,2.0,5.0,55,0.00,,,0.00,meteobridge,2017-05-22 22:14:00,
2017-05-22 18:19:00,72.0,55.9,29.93,NW,309,0.9,3.0,57,0.00,,,0.00,meteobridge,2017-05-22 22:19:00,
2017-05-22 18:24:00,72.1,55.6,29.93,NNW,344,2.9,5.0,56,0.00,,,0.00,meteobridge,2017-05-22 22:24:00,
2017-05-22 18:29:00,72.1,56.1,29.93,NNW,339,0.9,4.0,57,0.00,,,0.00,meteobridge,2017-05-22 22:29:00,
2017-05-22 18:34:00,72.1,56.1,29.94,North,355,0.9,2.0,57,0.00,,,0.00,meteobridge,2017-05-22 22:34:00,
2017-05-22 18:35:00,72.1,55.6,29.94,NW,321,2.0,2.0,56,0.00,,,0.00,meteobridge,2017-05-22 22:35:00,
2017-05-22 18:40:00,71.6,56.1,29.94,NW,323,0.9,2.0,58,0.00,,,0.00,meteobridge,2017-05-22 22:40:00,
2017-05-22 18:45:00,71.1,55.9,29.94,NW,318,0.9,1.0,59,0.00,,,0.00,meteobridge,2017-05-22 22:45:00,
2017-05-22 18:50:00,70.7,55.2,29.94,NW,317,0.0,5.0,58,0.00,,,0.00,meteobridge,2017-05-22 22:50:00,
2017-05-22 18:55:00,70.3,54.9,29.95,NW,324,0.0,3.0,58,0.00,,,0.00,meteobridge,2017-05-22 22:55:00,
2017-05-22 19:00:00,70.0,55.4,29.95,NNW,343,0.9,4.0,60,0.00,,,0.00,meteobridge,2017-05-22 23:00:00,
2017-05-22 19:02:00,70.0,55.4,29.95,NNW,343,0.0,1.0,60,0.00,,,0.00,meteobridge,2017-05-22 23:02:00,
2017-05-22 19:07:00,69.4,56.3,29.95,NW,325,0.0,0.0,63,0.00,,,0.00,meteobridge,2017-05-22 23:07:00,
2017-05-22 19:12:00,69.3,54.3,29.94,NNW,338,0.0,1.0,59,0.00,,,0.00,meteobridge,2017-05-22 23:12:00,
2017-05-22 19:17:00,68.9,54.5,29.94,NW,309,0.0,1.0,60,0.00,,,0.00,meteobridge,2017-05-22 23:17:00,
2017-05-22 19:23:00,68.5,54.1,29.95,NNW,330,0.9,1.0,60,0.00,,,0.00,meteobridge,2017-05-22 23:23:00,
2017-05-22 19:28:00,68.2,53.8,29.95,NW,316,0.0,2.0,60,0.00,,,0.00,meteobridge,2017-05-22 23:28:00,
2017-05-22 19:33:00,67.8,54.0,29.96,NNW,327,2.0,2.0,61,0.00,,,0.00,meteobridge,2017-05-22 23:33:00,
2017-05-22 19:38:00,67.6,53.2,29.95,WNW,297,0.9,4.0,60,0.00,,,0.00,meteobridge,2017-05-22 23:38:00,
2017-05-22 19:43:00,67.5,53.1,29.96,WNW,296,0.0,4.0,60,0.00,,,0.00,meteobridge,2017-05-22 23:43:00,